Time;durP1;ratioP1;P1;durP2;ratioP2;P2;SDS_P1;SDS_P2;PMS_P1;PMS_P2;Temp;Humidity;BMP_temperature;BMP_pressure;BME280_temperature;BME280_humidity;BME280_pressure;Samples;Min_cycle;Max_cycle;Signal;HPM_P1;HPM_P2
2022/04/24 00:01:30;;;;;;;9.50;4.05;;;22.00;54.90;;;;;;4895768;29;20059;-76
2022/04/24 00:04:00;;;;;;;5.72;3.45;;;22.00;54.90;;;;;;4895580;29;20021;-75
2022/04/24 00:06:41;;;;;;;8.15;3.80;;;22.00;55.10;;;;;;4925680;29;20512;-75
2022/04/24 00:09:32;;;;;;;15.55;3.60;;;22.10;55.10;;;;;;4881738;29;20053;-75
2022/04/24 00:11:58;;;;;;;8.68;4.07;;;22.00;55.80;;;;;;4896119;29;20135;-75
2022/04/24 00:14:38;;;;;;;8.13;3.78;;;22.10;55.30;;;;;;4895484;29;20537;-76
2022/04/24 00:17:30;;;;;;;9.55;3.83;;;22.10;55.30;;;;;;4881544;29;20131;-76
2022/04/24 00:19:56;;;;;;;8.70;3.63;;;22.00;55.50;;;;;;4895109;29;20510;-76
2022/04/24 00:22:22;;;;;;;6.93;3.75;;;22.00;55.50;;;;;;4894920;29;20032;-76
2022/04/24 00:24:50;;;;;;;11.57;3.83;;;22.00;55.60;;;;;;4896153;29;20035;-75
2022/04/24 00:27:16;;;;;;;6.97;3.50;;;22.00;55.70;;;;;;4899511;29;20036;-75
2022/04/24 00:29:43;;;;;;;8.35;3.47;;;22.00;55.70;;;;;;4882555;29;20064;-76
2022/04/24 00:32:09;;;;;;;7.95;3.85;;;22.00;55.90;;;;;;4882753;29;20045;-75
2022/04/24 00:34:35;;;;;;;10.25;3.33;;;22.00;55.90;;;;;;4898966;29;20088;-78
2022/04/24 00:37:04;;;;;;;9.50;3.72;;;22.00;55.80;;;;;;4914335;29;20116;-75
2022/04/24 00:39:29;;;;;;;12.63;3.58;;;22.00;55.90;;;;;;4898883;29;20394;-76
2022/04/24 00:41:55;;;;;;;7.20;3.20;;;22.00;55.60;;;;;;4897915;29;20032;-76
2022/04/24 00:44:21;;;;;;;8.00;3.53;;;22.00;55.50;;;;;;4899238;29;20026;-76
2022/04/24 00:47:14;;;;;;;13.60;3.90;;;22.00;55.50;;;;;;4899262;29;20550;-76
2022/04/24 00:49:44;;;;;;;8.13;3.88;;;22.00;55.90;;;;;;4898755;29;20493;-75
2022/04/24 00:52:09;;;;;;;;;;;22.00;55.90;;;;;;4899501;29;20783;-76
2022/04/24 00:54:35;;;;;;;11.20;3.90;;;22.00;55.80;;;;;;4913175;29;19911;-76
2022/04/24 00:57:01;;;;;;;7.63;3.40;;;22.00;55.80;;;;;;4897641;29;20044;-76
2022/04/24 00:59:27;;;;;;;7.82;3.33;;;22.00;55.80;;;;;;4898527;29;20500;-76
2022/04/24 01:01:53;;;;;;;9.77;3.95;;;22.00;55.80;;;;;;4899022;29;20028;-75
2022/04/24 01:04:19;;;;;;;12.90;3.83;;;22.00;56.50;;;;;;4896957;29;20053;-76
2022/04/24 01:06:45;;;;;;;11.13;3.90;;;22.00;55.90;;;;;;4898807;29;20039;-76
2022/04/24 01:09:19;;;;;;;9.07;3.65;;;21.90;55.80;;;;;;4897441;29;20032;-76
2022/04/24 01:11:47;;;;;;;5.80;3.45;;;21.90;55.80;;;;;;4897468;29;20405;-76
2022/04/24 01:14:16;;;;;;;7.50;3.60;;;21.90;55.80;;;;;;4928381;29;20075;-76
2022/04/24 01:16:42;;;;;;;7.18;2.90;;;22.00;55.90;;;;;;4898778;29;20570;-74
2022/04/24 01:19:09;;;;;;;12.38;3.42;;;22.00;55.80;;;;;;4896953;29;20406;-74
2022/04/24 01:21:35;;;;;;;8.18;3.42;;;22.00;56.20;;;;;;4912923;29;20033;-74
2022/04/24 01:24:07;;;;;;;11.13;3.97;;;22.00;56.20;;;;;;4897906;29;20401;-75
2022/04/24 01:26:33;;;;;;;4.47;2.72;;;22.00;56.20;;;;;;4913249;29;20037;-74
2022/04/24 01:28:59;;;;;;;5.88;3.50;;;22.00;56.30;;;;;;4897387;29;20040;-75
2022/04/24 01:31:25;;;;;;;9.15;3.67;;;22.00;56.20;;;;;;4897104;29;20029;-74
2022/04/24 01:33:51;;;;;;;7.35;3.22;;;22.00;56.10;;;;;;4912106;29;20107;-74
2022/04/24 01:36:17;;;;;;;5.97;3.40;;;22.00;56.30;;;;;;4896309;29;20564;-74
2022/04/24 01:38:43;;;;;;;7.40;3.67;;;22.00;56.10;;;;;;4897730;29;20040;-74
2022/04/24 01:41:09;;;;;;;6.53;3.33;;;21.90;56.00;;;;;;4896912;29;20072;-74
2022/04/24 01:43:38;;;;;;;6.68;3.17;;;21.90;56.10;;;;;;4897596;29;20080;-74
2022/04/24 01:46:08;;;;;;;4.97;3.03;;;22.00;56.30;;;;;;4896942;29;20036;-74
2022/04/24 01:48:34;;;;;;;;;;;22.00;56.20;;;;;;4897286;29;20482;-74
2022/04/24 01:51:01;;;;;;;10.05;3.70;;;21.90;56.10;;;;;;4897928;29;20018;-74
2022/04/24 01:53:28;;;;;;;8.93;3.35;;;21.90;56.10;;;;;;4896313;29;20037;-74
2022/04/24 01:55:56;;;;;;;7.45;3.38;;;22.00;56.20;;;;;;4912546;29;20031;-74
2022/04/24 01:58:24;;;;;;;7.33;3.33;;;21.90;56.00;;;;;;4927867;29;20024;-73
2022/04/24 02:00:50;;;;;;;7.22;3.35;;;22.00;56.20;;;;;;4912119;29;20272;-73
2022/04/24 02:03:16;;;;;;;7.18;3.13;;;21.90;56.10;;;;;;4927588;29;20394;-74
2022/04/24 02:05:42;;;;;;;6.15;3.00;;;21.90;56.10;;;;;;4897746;29;20040;-76
2022/04/24 02:08:07;;;;;;;7.63;3.38;;;21.90;56.20;;;;;;4880625;29;20078;-73
2022/04/24 02:10:33;;;;;;;4.07;3.00;;;22.00;56.20;;;;;;4897409;29;20033;-75
2022/04/24 02:12:59;;;;;;;8.57;2.97;;;22.00;56.30;;;;;;4896001;29;20509;-76
2022/04/24 02:15:25;;;;;;;6.88;2.95;;;21.90;56.40;;;;;;4927612;29;20064;-75
2022/04/24 02:17:50;;;;;;;4.72;2.72;;;22.00;56.50;;;;;;4897446;29;20033;-74
2022/04/24 02:20:16;;;;;;;6.53;3.22;;;22.00;56.50;;;;;;4880661;29;20035;-74
2022/04/24 02:22:42;;;;;;;7.18;3.20;;;22.00;56.50;;;;;;4880347;29;20032;-75
2022/04/24 02:25:08;;;;;;;5.85;3.20;;;22.00;56.50;;;;;;4897031;29;20080;-75
2022/04/24 02:27:34;;;;;;;4.32;2.88;;;22.00;56.50;;;;;;4897352;29;20040;-75
2022/04/24 02:30:00;;;;;;;5.93;3.30;;;22.00;56.60;;;;;;4897159;29;20032;-76
2022/04/24 02:32:25;;;;;;;4.72;2.70;;;21.90;56.50;;;;;;4897272;29;20036;-75
2022/04/24 02:34:51;;;;;;;6.03;3.20;;;22.00;56.70;;;;;;4896580;29;20029;-75
2022/04/24 02:37:17;;;;;;;6.43;3.10;;;22.00;56.70;;;;;;4896272;29;20119;-75
2022/04/24 02:39:42;;;;;;;7.40;3.38;;;22.00;57.00;;;;;;4896397;29;20043;-75
2022/04/24 02:42:08;;;;;;;6.28;2.65;;;22.00;56.90;;;;;;4895933;29;20036;-75
2022/04/24 02:44:34;;;;;;;6.00;3.33;;;22.00;56.80;;;;;;4896541;29;20088;-75
2022/04/24 02:47:00;;;;;;;7.53;3.22;;;22.00;56.80;;;;;;4896868;29;20100;-74
2022/04/24 02:49:26;;;;;;;5.32;2.92;;;22.00;56.90;;;;;;4896563;29;20041;-76
2022/04/24 02:51:52;;;;;;;6.45;3.00;;;21.90;56.90;;;;;;4895990;29;20390;-75
2022/04/24 02:54:17;;;;;;;6.90;2.97;;;22.00;56.90;;;;;;4895987;29;20029;-75
2022/04/24 02:56:43;;;;;;;6.45;3.00;;;21.90;56.80;;;;;;4896583;29;20056;-75
2022/04/24 02:59:09;;;;;;;6.38;3.33;;;22.00;56.90;;;;;;4895521;29;20569;-75
2022/04/24 03:01:35;;;;;;;5.65;3.08;;;22.00;56.90;;;;;;4896752;29;20116;-75
2022/04/24 03:04:01;;;;;;;4.90;3.00;;;21.90;56.90;;;;;;4895152;29;20060;-75
2022/04/24 03:06:26;;;;;;;5.78;3.00;;;21.90;57.00;;;;;;4896596;29;20028;-76
2022/04/24 03:08:52;;;;;;;5.65;3.00;;;22.00;56.90;;;;;;4896429;29;20056;-75
2022/04/24 03:11:18;;;;;;;3.65;2.55;;;22.00;56.90;;;;;;4895358;29;20041;-75
2022/04/24 03:13:44;;;;;;;6.18;2.90;;;22.00;57.10;;;;;;4896116;29;20062;-75
2022/04/24 03:16:10;;;;;;;4.82;2.60;;;22.00;57.00;;;;;;4896457;29;20036;-73
2022/04/24 03:18:35;;;;;;;5.18;2.90;;;22.00;57.20;;;;;;4896496;29;20506;-75
2022/04/24 03:21:01;;;;;;;5.78;2.70;;;21.90;57.10;;;;;;4896269;29;20051;-75
2022/04/24 03:23:27;;;;;;;4.07;2.70;;;22.00;57.30;;;;;;4896145;29;20025;-75
2022/04/24 03:25:52;;;;;;;7.35;2.80;;;22.00;57.50;;;;;;4896328;29;20037;-75
2022/04/24 03:28:18;;;;;;;6.03;3.00;;;22.00;57.20;;;;;;4896251;29;20033;-74
2022/04/24 03:30:44;;;;;;;4.18;2.53;;;22.00;57.50;;;;;;4896144;29;20100;-75
2022/04/24 03:33:10;;;;;;;6.30;2.80;;;22.00;57.30;;;;;;4895926;29;20035;-75
2022/04/24 03:35:36;;;;;;;6.32;2.70;;;22.00;57.30;;;;;;4910727;29;20405;-75
2022/04/24 03:38:02;;;;;;;5.07;2.88;;;22.00;57.70;;;;;;4910715;29;20083;-75
2022/04/24 03:40:28;;;;;;;6.00;2.83;;;22.00;57.80;;;;;;4896290;29;20040;-75
2022/04/24 03:42:54;;;;;;;4.30;2.67;;;22.00;57.60;;;;;;4894699;29;20029;-75
2022/04/24 03:45:20;;;;;;;9.63;3.00;;;21.90;57.60;;;;;;4896285;29;20029;-75
2022/04/24 03:47:51;;;;;;;6.18;2.88;;;22.00;57.50;;;;;;4895150;29;20032;-75
2022/04/24 03:50:19;;;;;;;4.90;2.95;;;21.90;57.30;;;;;;4895967;29;20112;-75
2022/04/24 03:52:44;;;;;;;4.30;2.80;;;22.00;57.60;;;;;;4910707;29;20374;-74
2022/04/24 03:55:10;;;;;;;5.80;2.83;;;21.90;57.50;;;;;;4895932;29;20069;-74
2022/04/24 03:57:36;;;;;;;5.25;2.85;;;22.00;57.50;;;;;;4896111;29;20029;-75
2022/04/24 04:00:03;;;;;;;6.00;2.92;;;21.90;57.50;;;;;;4895768;29;20087;-77
2022/04/24 04:02:47;;;;;;;5.05;2.83;;;21.90;57.20;;;;;;4899740;29;20028;-76
2022/04/24 04:05:13;;;;;;;5.10;3.00;;;22.00;57.30;;;;;;4898783;29;20025;-76
2022/04/24 04:07:39;;;;;;;5.97;2.67;;;21.90;57.50;;;;;;4898870;29;20516;-76
2022/04/24 04:10:07;;;;;;;4.20;2.55;;;21.90;57.50;;;;;;4898461;29;20060;-76
2022/04/24 04:12:33;;;;;;;5.95;3.05;;;21.90;57.10;;;;;;4899798;29;20077;-76
2022/04/24 04:15:03;;;;;;;4.97;2.75;;;22.00;57.40;;;;;;4899141;29;20041;-76
2022/04/24 04:17:29;;;;;;;3.72;2.40;;;22.00;57.90;;;;;;4899697;29;20036;-76
2022/04/24 04:19:55;;;;;;;4.32;2.60;;;21.90;57.50;;;;;;4913801;29;20092;-76
2022/04/24 04:22:20;;;;;;;6.10;2.60;;;22.00;57.90;;;;;;4914120;29;20505;-76
2022/04/24 04:24:46;;;;;;;8.05;2.90;;;21.90;57.80;;;;;;4899229;29;20080;-76
2022/04/24 04:27:12;;;;;;;4.57;2.85;;;22.00;57.90;;;;;;4899603;29;20033;-76
2022/04/24 04:29:37;;;;;;;7.82;2.97;;;21.90;58.30;;;;;;4882261;29;20032;-76
2022/04/24 04:32:04;;;;;;;4.63;2.78;;;22.00;56.90;;;;;;4899424;29;20032;-76
2022/04/24 04:34:29;;;;;;;5.10;2.85;;;22.00;57.20;;;;;;4898761;29;20115;-75
2022/04/24 04:36:55;;;;;;;4.45;2.50;;;22.00;57.40;;;;;;4898184;29;20112;-75
2022/04/24 04:39:21;;;;;;;7.70;2.97;;;22.00;57.30;;;;;;4899039;29;20036;-75
2022/04/24 04:41:47;;;;;;;5.32;2.92;;;22.00;57.80;;;;;;4899087;29;20064;-75
2022/04/24 04:44:12;;;;;;;5.85;2.90;;;22.00;58.00;;;;;;4898671;29;20414;-77
2022/04/24 04:46:38;;;;;;;6.47;2.75;;;22.00;57.60;;;;;;4899358;29;20032;-76
2022/04/24 04:49:04;;;;;;;6.07;2.80;;;22.00;57.50;;;;;;4898993;29;20367;-77
2022/04/24 04:51:30;;;;;;;9.23;2.80;;;22.00;57.70;;;;;;4898983;29;20638;-76
2022/04/24 04:53:56;;;;;;;6.22;2.60;;;22.00;57.60;;;;;;4898654;29;20041;-76
2022/04/24 04:56:22;;;;;;;5.30;2.60;;;22.00;57.80;;;;;;4913447;29;20041;-76
2022/04/24 04:58:48;;;;;;;5.20;2.85;;;22.00;57.80;;;;;;4897738;29;20116;-75
2022/04/24 05:01:14;;;;;;;6.68;2.92;;;21.90;57.60;;;;;;4898695;29;20047;-75
2022/04/24 05:03:40;;;;;;;4.45;2.65;;;22.00;58.00;;;;;;4897446;29;20029;-75
2022/04/24 05:06:06;;;;;;;7.07;3.15;;;22.00;57.70;;;;;;4897715;29;20039;-75
2022/04/24 05:08:32;;;;;;;10.27;3.15;;;22.00;57.10;;;;;;4897728;29;20060;-75
2022/04/24 05:10:59;;;;;;;8.57;3.53;;;22.00;57.90;;;;;;4913170;29;20032;-75
2022/04/24 05:13:25;;;;;;;6.25;2.83;;;22.00;57.40;;;;;;4898196;29;20032;-75
2022/04/24 05:15:51;;;;;;;5.82;2.80;;;22.00;57.30;;;;;;4898801;29;20129;-75
2022/04/24 05:18:18;;;;;;;7.07;3.22;;;22.00;57.30;;;;;;4898500;29;20036;-75
2022/04/24 05:20:44;;;;;;;9.95;3.15;;;22.00;57.60;;;;;;4897150;29;20036;-75
2022/04/24 05:23:10;;;;;;;10.13;3.08;;;22.00;57.60;;;;;;4897984;29;20057;-75
2022/04/24 05:25:36;;;;;;;5.68;3.10;;;22.00;57.00;;;;;;4897761;29;20115;-76
2022/04/24 05:28:03;;;;;;;5.97;3.10;;;21.90;57.10;;;;;;4897273;29;20489;-76
2022/04/24 05:30:30;;;;;;;8.13;3.08;;;21.90;57.80;;;;;;4898408;29;20036;-75
2022/04/24 05:32:55;;;;;;;7.85;2.88;;;22.00;57.60;;;;;;4881685;29;20040;-75
2022/04/24 05:35:21;;;;;;;7.28;2.83;;;22.00;57.70;;;;;;4897345;29;20040;-75
2022/04/24 05:37:47;;;;;;;4.25;2.70;;;21.90;57.80;;;;;;4881538;29;20039;-75
2022/04/24 05:40:14;;;;;;;8.25;3.00;;;22.00;57.80;;;;;;4896967;29;20041;-75
2022/04/24 05:42:52;;;;;;;8.68;3.38;;;21.90;58.10;;;;;;4897894;29;20622;-75
2022/04/24 05:45:22;;;;;;;7.75;2.90;;;22.00;57.90;;;;;;4928833;29;20035;-75
2022/04/24 05:47:53;;;;;;;7.38;2.85;;;22.00;57.90;;;;;;4897930;29;20021;-75
2022/04/24 05:50:20;;;;;;;7.75;3.05;;;21.90;57.90;;;;;;4896841;29;20056;-75
2022/04/24 05:52:46;;;;;;;6.65;3.00;;;22.00;57.80;;;;;;4897624;29;20106;-75
2022/04/24 05:55:12;;;;;;;10.00;3.35;;;22.00;58.00;;;;;;4897896;29;20127;-75
2022/04/24 05:57:38;;;;;;;9.90;3.10;;;21.90;57.50;;;;;;4897766;29;20075;-75
2022/04/24 06:00:09;;;;;;;8.57;3.10;;;22.00;57.70;;;;;;4896354;29;20465;-75
2022/04/24 06:02:40;;;;;;;8.02;2.97;;;22.00;57.80;;;;;;4897374;29;20093;-75
2022/04/24 06:05:08;;;;;;;11.57;2.97;;;22.00;57.70;;;;;;4896267;29;20036;-75
2022/04/24 06:07:34;;;;;;;8.60;2.95;;;22.00;57.70;;;;;;4912055;29;20401;-75
2022/04/24 06:09:59;;;;;;;10.02;3.20;;;22.00;57.70;;;;;;4896344;29;20032;-75
2022/04/24 06:12:25;;;;;;;10.13;3.30;;;21.90;57.70;;;;;;4911954;29;20116;-75
2022/04/24 06:14:51;;;;;;;10.90;3.28;;;21.90;57.90;;;;;;4896217;29;20398;-75
2022/04/24 06:17:16;;;;;;;8.32;3.10;;;21.90;57.70;;;;;;4911990;29;20028;-75
2022/04/24 06:19:42;;;;;;;8.80;3.40;;;21.90;57.80;;;;;;4897158;29;20025;-76
2022/04/24 06:22:08;;;;;;;8.65;3.25;;;21.90;57.80;;;;;;4895989;29;20064;-75
2022/04/24 06:24:34;;;;;;;8.77;3.20;;;21.90;57.90;;;;;;4895586;29;20032;-75
2022/04/24 06:26:59;;;;;;;8.38;2.97;;;22.00;57.80;;;;;;4911801;29;20031;-76
2022/04/24 06:29:25;;;;;;;6.50;3.00;;;21.90;57.80;;;;;;4897100;29;20064;-76
2022/04/24 06:31:51;;;;;;;8.48;3.60;;;21.90;57.80;;;;;;4896125;29;20486;-75
2022/04/24 06:34:17;;;;;;;6.68;2.95;;;21.90;57.80;;;;;;4911405;29;20179;-75
2022/04/24 06:36:43;;;;;;;9.05;3.05;;;21.90;58.10;;;;;;4896987;29;20116;-75
2022/04/24 06:39:08;;;;;;;5.93;3.20;;;22.00;58.00;;;;;;4896800;29;20044;-75
2022/04/24 06:41:34;;;;;;;5.93;2.90;;;22.00;58.10;;;;;;4895748;29;20036;-76
2022/04/24 06:44:00;;;;;;;5.93;2.83;;;22.00;58.30;;;;;;4896999;29;20025;-75
2022/04/24 06:46:25;;;;;;;8.70;3.38;;;22.00;58.10;;;;;;4897081;29;20385;-75
2022/04/24 06:48:51;;;;;;;7.72;3.00;;;22.00;57.50;;;;;;4896721;29;20532;-75
2022/04/24 06:51:17;;;;;;;10.30;2.97;;;22.00;58.30;;;;;;4897039;29;20043;-74
2022/04/24 06:53:42;;;;;;;5.70;3.08;;;22.00;58.00;;;;;;4896295;29;20490;-75
2022/04/24 06:56:08;;;;;;;5.90;3.17;;;22.00;58.30;;;;;;4896765;29;20071;-75
2022/04/24 06:58:34;;;;;;;6.80;3.20;;;22.00;58.50;;;;;;4896654;29;20052;-75
2022/04/24 07:00:59;;;;;;;7.05;3.15;;;22.00;58.40;;;;;;4895738;29;20069;-75
2022/04/24 07:03:28;;;;;;;5.13;2.72;;;22.00;58.60;;;;;;4910719;29;20394;-74
2022/04/24 07:05:56;;;;;;;5.38;2.83;;;22.10;58.70;;;;;;4896638;29;20029;-74
2022/04/24 07:08:24;;;;;;;5.20;3.00;;;22.00;58.70;;;;;;4896454;29;20603;-75
2022/04/24 07:10:50;;;;;;;7.43;3.17;;;22.00;58.50;;;;;;4896666;29;20080;-74
2022/04/24 07:13:16;;;;;;;4.38;2.58;;;22.00;59.00;;;;;;4896176;29;20036;-75
2022/04/24 07:15:42;;;;;;;7.18;2.97;;;22.00;58.90;;;;;;4880088;29;20059;-75
2022/04/24 07:18:08;;;;;;;6.25;3.17;;;22.10;58.90;;;;;;4896369;29;20396;-74
2022/04/24 07:20:34;;;;;;;7.28;3.08;;;22.00;58.80;;;;;;4896284;29;20044;-75
2022/04/24 07:23:02;;;;;;;7.25;3.17;;;22.00;58.70;;;;;;4896032;29;20036;-75
2022/04/24 07:25:33;;;;;;;7.47;3.15;;;22.10;58.90;;;;;;4896289;29;20032;-75
2022/04/24 07:27:58;;;;;;;6.03;2.67;;;22.00;58.80;;;;;;4910937;29;20037;-74
2022/04/24 07:30:24;;;;;;;6.13;2.83;;;22.10;58.60;;;;;;4895138;29;20445;-75
2022/04/24 07:32:52;;;;;;;7.00;3.15;;;22.00;58.70;;;;;;4896087;29;20033;-75
2022/04/24 07:35:26;;;;;;;15.88;3.40;;;22.00;58.70;;;;;;4910181;29;20044;-75
2022/04/24 07:37:52;;;;;;;8.93;3.35;;;22.10;58.70;;;;;;4879561;29;20040;-75
2022/04/24 07:40:19;;;;;;;6.30;3.22;;;22.10;58.60;;;;;;4894726;29;20033;-75
2022/04/24 07:43:00;;;;;;;8.02;3.30;;;22.10;58.60;;;;;;4894404;29;20053;-75
2022/04/24 07:45:28;;;;;;;6.03;3.30;;;22.10;58.50;;;;;;4895890;29;20067;-76
2022/04/24 07:47:55;;;;;;;7.22;3.15;;;22.10;58.60;;;;;;4896236;29;20032;-75
2022/04/24 07:50:24;;;;;;;8.40;3.00;;;22.10;58.50;;;;;;4926183;29;20501;-75
2022/04/24 07:52:51;;;;;;;6.65;2.97;;;22.10;58.60;;;;;;4895874;29;20036;-76
2022/04/24 07:55:19;;;;;;;7.10;3.40;;;22.10;58.60;;;;;;4896039;29;20037;-76
2022/04/24 07:57:46;;;;;;;9.52;3.35;;;22.20;59.00;;;;;;4896184;29;20036;-75
2022/04/24 08:00:13;;;;;;;8.88;3.55;;;22.20;59.00;;;;;;4895765;29;20043;-75
2022/04/24 08:02:57;;;;;;;6.82;3.35;;;22.20;59.10;;;;;;4910533;29;20052;-76
2022/04/24 08:05:27;;;;;;;8.35;3.30;;;22.20;58.80;;;;;;4910533;29;20104;-75
2022/04/24 08:07:54;;;;;;;6.55;3.05;;;22.20;58.90;;;;;;4896104;29;20491;-77
2022/04/24 08:10:21;;;;;;;5.70;2.90;;;22.10;58.80;;;;;;4894330;29;20398;-76
2022/04/24 08:12:48;;;;;;;7.30;2.88;;;22.10;58.80;;;;;;4910187;29;20036;-76
2022/04/24 08:15:14;;;;;;;7.13;3.40;;;22.10;58.80;;;;;;4895751;29;20024;-76
2022/04/24 08:17:40;;;;;;;7.18;3.40;;;22.10;59.00;;;;;;4894777;29;20039;-76
2022/04/24 08:20:07;;;;;;;6.40;3.03;;;22.10;58.80;;;;;;4895505;29;20029;-75
2022/04/24 08:22:41;;;;;;;8.65;3.30;;;22.10;58.70;;;;;;4894843;29;20033;-75
2022/04/24 08:25:08;;;;;;;7.97;3.30;;;22.20;58.90;;;;;;4895479;29;20033;-75
2022/04/24 08:27:36;;;;;;;6.63;3.00;;;22.20;58.60;;;;;;4895919;29;20051;-76
2022/04/24 08:30:07;;;;;;;8.00;3.20;;;22.20;58.80;;;;;;4895478;29;20035;-76
2022/04/24 08:32:33;;;;;;;6.65;3.20;;;22.20;58.70;;;;;;4895826;29;20120;-75
2022/04/24 08:34:59;;;;;;;7.88;3.28;;;22.20;58.70;;;;;;4895496;29;20119;-75
2022/04/24 08:37:26;;;;;;;10.30;3.03;;;22.20;58.60;;;;;;4926183;29;20438;-75
2022/04/24 08:39:52;;;;;;;7.03;2.92;;;22.20;58.70;;;;;;4895469;29;20029;-75
2022/04/24 08:42:21;;;;;;;8.35;3.88;;;22.20;58.20;;;;;;4894749;29;20409;-74
2022/04/24 08:44:51;;;;;;;8.50;3.15;;;22.20;57.00;;;;;;4909734;29;20501;-75
2022/04/24 08:47:18;;;;;;;5.18;3.17;;;22.20;57.20;;;;;;4897161;29;20028;-75
2022/04/24 08:49:44;;;;;;;6.05;3.45;;;22.20;56.40;;;;;;4897464;29;20486;-74
2022/04/24 08:52:10;;;;;;;6.80;3.45;;;22.10;55.50;;;;;;4897557;29;20040;-74
2022/04/24 08:54:39;;;;;;;7.45;3.38;;;22.10;55.00;;;;;;4898467;29;20053;-73
2022/04/24 08:57:04;;;;;;;7.85;3.55;;;22.20;54.10;;;;;;4913611;29;20037;-74
2022/04/24 08:59:30;;;;;;;8.75;3.47;;;22.10;53.30;;;;;;4897456;29;20047;-75
2022/04/24 09:01:58;;;;;;;7.40;3.60;;;22.10;53.40;;;;;;4898240;29;20037;-75
2022/04/24 09:04:27;;;;;;;5.65;3.60;;;22.10;53.40;;;;;;4898492;29;20033;-75
2022/04/24 09:06:56;;;;;;;7.38;3.60;;;22.10;52.30;;;;;;4913333;29;20033;-75
2022/04/24 09:09:22;;;;;;;5.45;3.55;;;22.10;52.30;;;;;;4897316;29;20024;-75
2022/04/24 09:11:48;;;;;;;7.47;4.05;;;22.00;51.40;;;;;;4913479;29;20080;-74
2022/04/24 09:14:23;;;;;;;8.50;3.47;;;22.00;51.80;;;;;;4897412;29;20045;-74
2022/04/24 09:16:50;;;;;;;7.03;3.30;;;22.00;51.80;;;;;;4898586;29;20036;-74
2022/04/24 09:19:22;;;;;;;9.75;3.90;;;22.00;50.40;;;;;;4897105;29;20097;-74
2022/04/24 09:21:50;;;;;;;6.65;3.58;;;22.00;48.80;;;;;;4897195;29;20029;-75
2022/04/24 09:24:16;;;;;;;6.80;3.63;;;22.00;49.30;;;;;;4898235;29;20021;-75
2022/04/24 09:26:56;;;;;;;7.30;3.50;;;22.00;49.90;;;;;;4898361;29;20036;-75
2022/04/24 09:29:23;;;;;;;5.57;3.70;;;22.00;49.60;;;;;;4897076;29;20028;-75
2022/04/24 09:31:50;;;;;;;6.55;3.53;;;22.00;48.60;;;;;;4912826;29;20063;-75
2022/04/24 09:34:21;;;;;;;8.38;3.72;;;22.10;48.90;;;;;;4896591;29;20036;-74
2022/04/24 09:36:58;;;;;;;6.10;3.15;;;22.00;48.70;;;;;;4897212;29;20505;-75
2022/04/24 09:39:34;;;;;;;8.63;3.65;;;22.00;48.20;;;;;;4897833;29;20029;-75
2022/04/24 09:42:10;;;;;;;10.30;3.92;;;22.10;48.10;;;;;;4881436;29;20075;-75
2022/04/24 09:44:47;;;;;;;7.05;3.80;;;22.10;47.40;;;;;;4897545;29;20445;-75
2022/04/24 09:47:16;;;;;;;5.18;3.28;;;22.10;47.50;;;;;;4898244;29;20375;-76
2022/04/24 09:49:45;;;;;;;7.47;3.95;;;22.10;48.40;;;;;;4898178;29;20032;-75
2022/04/24 09:52:23;;;;;;;7.07;3.72;;;22.00;48.00;;;;;;4897973;29;20393;-75
2022/04/24 09:54:53;;;;;;;5.93;3.60;;;22.10;48.80;;;;;;4897576;29;20522;-75
2022/04/24 09:57:22;;;;;;;6.82;3.38;;;22.10;48.90;;;;;;4897604;29;20037;-76
2022/04/24 09:59:48;;;;;;;7.35;3.88;;;22.10;48.80;;;;;;4896490;29;20044;-75
2022/04/24 10:02:18;;;;;;;6.35;3.83;;;22.10;48.30;;;;;;4896549;29;20053;-75
2022/04/24 10:04:46;;;;;;;9.05;3.90;;;22.10;48.40;;;;;;4897426;29;20123;-75
2022/04/24 10:07:16;;;;;;;8.90;4.43;;;22.10;47.10;;;;;;4897631;29;20524;-74
2022/04/24 10:09:44;;;;;;;7.30;3.97;;;22.10;46.30;;;;;;4896122;29;20028;-75
2022/04/24 10:12:15;;;;;;;9.38;3.97;;;22.10;46.70;;;;;;4897799;29;20032;-75
2022/04/24 10:14:49;;;;;;;7.60;3.85;;;22.10;47.00;;;;;;4897277;29;20474;-76
2022/04/24 10:17:52;;;;;;;6.72;3.78;;;22.10;48.40;;;;;;4897604;29;20032;-76
2022/04/24 10:20:43;;;;;;;6.82;3.90;;;22.00;48.30;;;;;;4896083;29;20029;-75
2022/04/24 10:23:11;;;;;;;10.25;3.95;;;22.00;47.70;;;;;;4897064;29;20123;-76
2022/04/24 10:25:40;;;;;;;6.78;3.92;;;22.00;47.10;;;;;;4927893;29;20028;-76
2022/04/24 10:28:19;;;;;;;8.98;3.75;;;22.10;48.10;;;;;;4912261;29;20131;-76
2022/04/24 10:31:03;;;;;;;6.63;3.58;;;22.10;48.70;;;;;;4896096;29;20084;-76
2022/04/24 10:33:30;;;;;;;6.60;3.38;;;22.00;48.30;;;;;;4927334;29;20127;-76
2022/04/24 10:36:10;;;;;;;6.57;3.47;;;22.00;47.50;;;;;;4897247;29;20032;-75
2022/04/24 10:38:57;;;;;;;6.55;3.67;;;22.00;47.80;;;;;;4896556;29;20044;-76
2022/04/24 10:41:27;;;;;;;7.20;3.40;;;22.00;47.70;;;;;;4896839;29;20028;-75
2022/04/24 10:43:58;;;;;;;7.28;3.60;;;22.00;47.70;;;;;;4911266;29;20025;-75
2022/04/24 10:46:25;;;;;;;7.80;3.70;;;22.00;47.70;;;;;;4896988;29;20020;-75
2022/04/24 10:48:51;;;;;;;6.88;3.63;;;22.00;47.30;;;;;;4895172;29;20028;-73
2022/04/24 10:51:30;;;;;;;6.35;3.47;;;22.00;46.30;;;;;;4896952;29;20381;-74
2022/04/24 10:54:01;;;;;;;6.10;3.20;;;22.00;47.10;;;;;;4896837;29;20099;-74
2022/04/24 10:56:29;;;;;;;6.82;3.22;;;22.00;46.20;;;;;;4896901;29;20056;-74
2022/04/24 10:59:13;;;;;;;6.53;3.28;;;22.00;46.00;;;;;;4896638;29;20029;-74
2022/04/24 11:01:44;;;;;;;6.55;3.75;;;22.00;45.60;;;;;;4896665;29;20037;-73
2022/04/24 11:04:12;;;;;;;7.78;3.33;;;22.00;45.30;;;;;;4896435;29;20076;-73
2022/04/24 11:06:38;;;;;;;8.52;3.50;;;21.90;45.50;;;;;;4896543;29;20383;-73
2022/04/24 11:09:23;;;;;;;7.88;3.72;;;22.00;45.50;;;;;;4896320;29;20032;-73
2022/04/24 11:11:52;;;;;;;7.97;3.53;;;22.00;45.20;;;;;;4910907;29;20036;-73
2022/04/24 11:14:22;;;;;;;5.10;3.05;;;22.00;45.40;;;;;;4896225;29;20024;-73
2022/04/24 11:16:53;;;;;;;7.28;3.35;;;22.00;45.10;;;;;;4896639;29;20025;-74
2022/04/24 11:19:29;;;;;;;6.70;3.20;;;22.00;45.20;;;;;;4896523;29;20478;-74
2022/04/24 11:21:59;;;;;;;9.02;3.97;;;22.00;45.90;;;;;;4896166;29;20036;-74
2022/04/24 11:24:34;;;;;;;4.95;3.50;;;22.00;45.40;;;;;;4896038;29;20053;-74
2022/04/24 11:27:05;;;;;;;12.10;4.95;;;22.00;46.50;;;;;;4926774;29;20477;-73
2022/04/24 11:29:34;;;;;;;6.65;4.25;;;22.10;47.00;;;;;;4895192;29;20040;-73
2022/04/24 11:32:02;;;;;;;7.97;4.35;;;22.10;47.00;;;;;;4895266;29;20041;-73
2022/04/24 11:34:29;;;;;;;10.98;4.70;;;22.10;46.90;;;;;;4926293;29;20025;-74
2022/04/24 11:36:59;;;;;;;6.88;3.45;;;22.10;47.30;;;;;;4896036;29;20088;-73
2022/04/24 11:39:25;;;;;;;5.30;2.92;;;22.10;45.00;;;;;;4896306;29;20029;-73
2022/04/24 11:41:52;;;;;;;9.05;2.92;;;22.10;44.10;;;;;;4879653;29;20036;-76
2022/04/24 11:50:14;;;;;;;7.78;3.83;;;22.00;43.10;;;;;;4895938;29;20091;-75
2022/04/24 11:52:42;;;;;;;6.85;3.20;;;21.90;42.80;;;;;;4896287;29;20457;-75
2022/04/24 11:55:10;;;;;;;7.65;3.67;;;21.90;43.00;;;;;;4895774;29;20025;-77
2022/04/24 11:57:36;;;;;;;9.35;3.78;;;21.90;42.80;;;;;;4894961;29;20044;-76
2022/04/24 12:00:12;;;;;;;7.38;3.65;;;21.90;43.00;;;;;;4926331;29;20036;-76
2022/04/24 12:02:38;;;;;;;6.70;3.65;;;21.90;43.20;;;;;;4896078;29;20032;-76
2022/04/24 12:05:11;;;;;;;6.03;3.40;;;21.90;42.70;;;;;;4894648;29;20685;-76
2022/04/24 12:07:40;;;;;;;7.35;3.35;;;21.80;42.20;;;;;;4879426;29;20080;-76
2022/04/24 12:10:09;;;;;;;6.78;3.15;;;21.90;42.60;;;;;;4879243;29;20029;-77
2022/04/24 12:12:45;;;;;;;7.95;3.05;;;21.90;41.80;;;;;;4895956;29;20119;-77
2022/04/24 12:15:16;;;;;;;8.25;3.40;;;21.90;41.00;;;;;;4894703;29;20064;-77
2022/04/24 12:17:54;;;;;;;7.30;3.03;;;21.90;39.70;;;;;;4894712;29;20036;-77
2022/04/24 12:20:21;;;;;;;4.90;3.05;;;21.90;41.30;;;;;;4895586;29;20127;-78
2022/04/24 12:22:47;;;;;;;5.35;2.50;;;21.90;40.40;;;;;;4929609;29;20123;-76
2022/04/24 12:25:18;;;;;;;5.13;2.63;;;21.90;40.00;;;;;;4899393;29;20036;-77
2022/04/24 12:27:54;;;;;;;5.07;3.03;;;22.00;39.60;;;;;;4899533;29;20088;-77
2022/04/24 12:30:24;;;;;;;5.88;2.92;;;21.90;39.80;;;;;;4899417;29;20119;-77
2022/04/24 12:32:50;;;;;;;7.90;3.20;;;21.90;39.60;;;;;;4913471;29;20044;-77
2022/04/24 12:35:30;;;;;;;12.82;3.70;;;21.90;41.20;;;;;;4899264;29;20103;-74
2022/04/24 12:37:55;;;;;;;11.40;3.47;;;22.00;46.00;;;;;;4899104;29;20040;-75
2022/04/24 12:40:21;;;;;;;7.22;2.92;;;22.00;45.70;;;;;;4899102;29;20037;-74
2022/04/24 12:42:54;;;;;;;10.88;3.58;;;22.00;40.50;;;;;;4897538;29;20040;-73
2022/04/24 12:45:21;;;;;;;12.93;3.60;;;22.00;41.40;;;;;;4899222;29;20104;-74
2022/04/24 12:47:47;;;;;;;12.40;3.42;;;22.00;41.60;;;;;;4898981;29;20032;-76
2022/04/24 12:50:14;;;;;;;14.55;6.10;;;22.00;41.20;;;;;;4898787;29;20093;-75
2022/04/24 12:52:40;;;;;;;12.18;4.93;;;22.00;42.60;;;;;;4898126;29;20131;-74
2022/04/24 12:55:06;;;;;;;19.70;12.30;;;21.90;41.60;;;;;;4897607;29;20099;-74
2022/04/24 12:57:32;;;;;;;25.40;13.35;;;21.90;44.00;;;;;;4899021;29;20039;-74